sensor_id;sensor_type;location;lat;lon;timestamp;temperature;humidity
33841;DHT22;20142;28.494;-16.312;2024-02-04T00:00:57;17.60;41.70
33841;DHT22;20142;28.494;-16.312;2024-02-04T00:05:59;17.50;41.30
33841;DHT22;20142;28.494;-16.312;2024-02-04T00:11:01;17.50;41.50
33841;DHT22;20142;28.494;-16.312;2024-02-04T00:16:02;17.50;41.10
33841;DHT22;20142;28.494;-16.312;2024-02-04T00:21:04;17.40;40.80
33841;DHT22;20142;28.494;-16.312;2024-02-04T00:26:06;17.40;40.70
33841;DHT22;20142;28.494;-16.312;2024-02-04T00:31:08;17.40;40.90
33841;DHT22;20142;28.494;-16.312;2024-02-04T00:36:10;17.40;40.80
33841;DHT22;20142;28.494;-16.312;2024-02-04T00:41:11;17.50;40.40
33841;DHT22;20142;28.494;-16.312;2024-02-04T00:46:13;17.60;40.20
33841;DHT22;20142;28.494;-16.312;2024-02-04T00:51:15;17.50;40.40
33841;DHT22;20142;28.494;-16.312;2024-02-04T00:56:18;17.40;40.00
33841;DHT22;20142;28.494;-16.312;2024-02-04T01:01:19;17.30;40.10
33841;DHT22;20142;28.494;-16.312;2024-02-04T01:06:21;17.30;40.10
33841;DHT22;20142;28.494;-16.312;2024-02-04T01:11:23;17.30;40.20
33841;DHT22;20142;28.494;-16.312;2024-02-04T01:16:25;17.40;40.40
33841;DHT22;20142;28.494;-16.312;2024-02-04T01:21:27;17.30;40.80
33841;DHT22;20142;28.494;-16.312;2024-02-04T01:26:29;17.30;41.50
33841;DHT22;20142;28.494;-16.312;2024-02-04T01:31:31;17.20;42.10
33841;DHT22;20142;28.494;-16.312;2024-02-04T01:36:32;17.20;43.20
33841;DHT22;20142;28.494;-16.312;2024-02-04T01:41:34;17.10;44.30
33841;DHT22;20142;28.494;-16.312;2024-02-04T01:46:36;16.90;45.60
33841;DHT22;20142;28.494;-16.312;2024-02-04T01:51:38;17.00;47.00
33841;DHT22;20142;28.494;-16.312;2024-02-04T01:56:40;16.90;48.70
33841;DHT22;20142;28.494;-16.312;2024-02-04T02:01:43;17.00;50.20
33841;DHT22;20142;28.494;-16.312;2024-02-04T02:06:45;17.00;51.50
33841;DHT22;20142;28.494;-16.312;2024-02-04T02:17:16;17.00;53.80
33841;DHT22;20142;28.494;-16.312;2024-02-04T02:22:35;16.90;55.40
33841;DHT22;20142;28.494;-16.312;2024-02-04T02:27:50;16.90;56.30
33841;DHT22;20142;28.494;-16.312;2024-02-04T02:32:52;16.90;57.40
33841;DHT22;20142;28.494;-16.312;2024-02-04T02:43:39;16.80;59.20
33841;DHT22;20142;28.494;-16.312;2024-02-04T02:48:42;16.80;60.80
33841;DHT22;20142;28.494;-16.312;2024-02-04T02:53:44;16.80;62.10
33841;DHT22;20142;28.494;-16.312;2024-02-04T02:58:45;16.90;63.00
33841;DHT22;20142;28.494;-16.312;2024-02-04T03:03:47;16.80;63.90
33841;DHT22;20142;28.494;-16.312;2024-02-04T03:08:49;16.80;65.00
33841;DHT22;20142;28.494;-16.312;2024-02-04T03:13:51;16.70;65.90
33841;DHT22;20142;28.494;-16.312;2024-02-04T03:18:53;16.70;66.90
33841;DHT22;20142;28.494;-16.312;2024-02-04T03:23:54;16.70;67.50
33841;DHT22;20142;28.494;-16.312;2024-02-04T03:28:56;16.70;68.30
33841;DHT22;20142;28.494;-16.312;2024-02-04T03:33:58;16.70;68.60
33841;DHT22;20142;28.494;-16.312;2024-02-04T03:39:00;16.70;69.10
33841;DHT22;20142;28.494;-16.312;2024-02-04T03:44:01;16.80;69.20
33841;DHT22;20142;28.494;-16.312;2024-02-04T03:49:03;16.70;69.00
33841;DHT22;20142;28.494;-16.312;2024-02-04T03:54:05;16.70;69.00
33841;DHT22;20142;28.494;-16.312;2024-02-04T03:59:08;16.70;68.90
33841;DHT22;20142;28.494;-16.312;2024-02-04T04:04:12;16.70;68.30
33841;DHT22;20142;28.494;-16.312;2024-02-04T04:09:14;16.70;67.90
33841;DHT22;20142;28.494;-16.312;2024-02-04T04:14:16;16.60;68.00
33841;DHT22;20142;28.494;-16.312;2024-02-04T04:19:17;16.60;68.10
33841;DHT22;20142;28.494;-16.312;2024-02-04T04:24:19;16.60;68.40
33841;DHT22;20142;28.494;-16.312;2024-02-04T04:29:23;16.60;68.70
33841;DHT22;20142;28.494;-16.312;2024-02-04T04:34:25;16.50;68.80
33841;DHT22;20142;28.494;-16.312;2024-02-04T04:39:27;16.60;69.50
33841;DHT22;20142;28.494;-16.312;2024-02-04T04:44:29;16.60;69.80
33841;DHT22;20142;28.494;-16.312;2024-02-04T04:49:31;16.60;69.90
33841;DHT22;20142;28.494;-16.312;2024-02-04T04:54:33;16.50;70.00
33841;DHT22;20142;28.494;-16.312;2024-02-04T04:59:34;16.50;70.70
33841;DHT22;20142;28.494;-16.312;2024-02-04T05:04:37;16.60;71.70
33841;DHT22;20142;28.494;-16.312;2024-02-04T05:09:39;16.50;71.60
33841;DHT22;20142;28.494;-16.312;2024-02-04T05:14:40;16.40;72.80
33841;DHT22;20142;28.494;-16.312;2024-02-04T05:19:42;16.40;73.20
33841;DHT22;20142;28.494;-16.312;2024-02-04T05:24:44;16.50;74.00
33841;DHT22;20142;28.494;-16.312;2024-02-04T05:29:45;16.50;74.30
33841;DHT22;20142;28.494;-16.312;2024-02-04T05:34:47;16.40;74.90
33841;DHT22;20142;28.494;-16.312;2024-02-04T05:39:49;16.40;75.20
33841;DHT22;20142;28.494;-16.312;2024-02-04T05:44:51;16.40;75.40
33841;DHT22;20142;28.494;-16.312;2024-02-04T05:49:52;16.30;76.00
33841;DHT22;20142;28.494;-16.312;2024-02-04T05:54:54;16.40;76.60
33841;DHT22;20142;28.494;-16.312;2024-02-04T05:59:56;16.40;76.90
33841;DHT22;20142;28.494;-16.312;2024-02-04T06:05:00;16.40;77.30
33841;DHT22;20142;28.494;-16.312;2024-02-04T06:10:02;16.30;77.80
33841;DHT22;20142;28.494;-16.312;2024-02-04T06:15:05;16.40;78.00
33841;DHT22;20142;28.494;-16.312;2024-02-04T06:20:07;16.30;78.10
33841;DHT22;20142;28.494;-16.312;2024-02-04T06:25:09;16.30;78.30
33841;DHT22;20142;28.494;-16.312;2024-02-04T06:30:11;16.20;78.80
33841;DHT22;20142;28.494;-16.312;2024-02-04T06:35:13;16.20;79.00
33841;DHT22;20142;28.494;-16.312;2024-02-04T06:40:15;16.20;79.20
33841;DHT22;20142;28.494;-16.312;2024-02-04T06:45:17;16.10;79.50
33841;DHT22;20142;28.494;-16.312;2024-02-04T06:50:19;16.00;79.80
33841;DHT22;20142;28.494;-16.312;2024-02-04T06:55:20;16.00;80.20
33841;DHT22;20142;28.494;-16.312;2024-02-04T07:00:22;16.00;80.40
33841;DHT22;20142;28.494;-16.312;2024-02-04T07:05:24;15.90;80.50
33841;DHT22;20142;28.494;-16.312;2024-02-04T07:10:26;15.90;80.50
33841;DHT22;20142;28.494;-16.312;2024-02-04T07:15:28;15.90;80.50
33841;DHT22;20142;28.494;-16.312;2024-02-04T07:20:29;16.00;80.50
33841;DHT22;20142;28.494;-16.312;2024-02-04T07:25:31;16.10;80.30
33841;DHT22;20142;28.494;-16.312;2024-02-04T07:30:35;16.10;79.90
33841;DHT22;20142;28.494;-16.312;2024-02-04T07:35:37;16.20;79.10
33841;DHT22;20142;28.494;-16.312;2024-02-04T07:40:39;16.30;78.70
33841;DHT22;20142;28.494;-16.312;2024-02-04T07:45:40;16.30;78.00
33841;DHT22;20142;28.494;-16.312;2024-02-04T07:50:43;16.30;77.20
33841;DHT22;20142;28.494;-16.312;2024-02-04T07:55:45;16.50;76.30
33841;DHT22;20142;28.494;-16.312;2024-02-04T08:00:46;16.60;75.60
33841;DHT22;20142;28.494;-16.312;2024-02-04T08:05:48;16.60;74.20
33841;DHT22;20142;28.494;-16.312;2024-02-04T08:10:50;16.70;73.80
33841;DHT22;20142;28.494;-16.312;2024-02-04T08:15:52;16.70;73.10
33841;DHT22;20142;28.494;-16.312;2024-02-04T08:20:54;16.70;73.20
33841;DHT22;20142;28.494;-16.312;2024-02-04T08:25:55;16.90;73.10
33841;DHT22;20142;28.494;-16.312;2024-02-04T08:30:58;16.90;72.90
33841;DHT22;20142;28.494;-16.312;2024-02-04T08:36:00;16.90;73.00
33841;DHT22;20142;28.494;-16.312;2024-02-04T08:41:03;17.10;73.30
33841;DHT22;20142;28.494;-16.312;2024-02-04T08:46:05;17.20;73.60
33841;DHT22;20142;28.494;-16.312;2024-02-04T08:51:13;17.30;73.90
33841;DHT22;20142;28.494;-16.312;2024-02-04T08:56:17;17.50;73.80
33841;DHT22;20142;28.494;-16.312;2024-02-04T09:01:19;17.60;74.20
33841;DHT22;20142;28.494;-16.312;2024-02-04T09:06:21;17.60;73.70
33841;DHT22;20142;28.494;-16.312;2024-02-04T09:11:22;17.60;74.40
33841;DHT22;20142;28.494;-16.312;2024-02-04T09:16:25;17.80;74.60
33841;DHT22;20142;28.494;-16.312;2024-02-04T09:21:27;18.00;73.90
33841;DHT22;20142;28.494;-16.312;2024-02-04T09:26:29;18.20;72.60
33841;DHT22;20142;28.494;-16.312;2024-02-04T09:31:30;18.50;71.10
33841;DHT22;20142;28.494;-16.312;2024-02-04T09:36:32;18.70;69.20
33841;DHT22;20142;28.494;-16.312;2024-02-04T09:41:34;19.00;67.90
33841;DHT22;20142;28.494;-16.312;2024-02-04T09:46:35;19.30;66.80
33841;DHT22;20142;28.494;-16.312;2024-02-04T09:51:37;19.40;65.20
33841;DHT22;20142;28.494;-16.312;2024-02-04T09:56:40;19.50;64.00
33841;DHT22;20142;28.494;-16.312;2024-02-04T10:01:43;19.50;63.40
33841;DHT22;20142;28.494;-16.312;2024-02-04T10:06:45;19.60;62.40
33841;DHT22;20142;28.494;-16.312;2024-02-04T10:11:47;19.40;61.70
33841;DHT22;20142;28.494;-16.312;2024-02-04T10:16:49;19.40;61.30
33841;DHT22;20142;28.494;-16.312;2024-02-04T10:22:09;19.40;60.00
33841;DHT22;20142;28.494;-16.312;2024-02-04T10:27:11;19.40;59.50
33841;DHT22;20142;28.494;-16.312;2024-02-04T10:32:12;19.70;58.70
33841;DHT22;20142;28.494;-16.312;2024-02-04T10:37:14;20.00;58.00
33841;DHT22;20142;28.494;-16.312;2024-02-04T10:42:17;20.20;56.70
33841;DHT22;20142;28.494;-16.312;2024-02-04T10:47:33;20.60;55.50
33841;DHT22;20142;28.494;-16.312;2024-02-04T10:52:39;21.00;53.70
33841;DHT22;20142;28.494;-16.312;2024-02-04T10:57:41;21.40;52.90
33841;DHT22;20142;28.494;-16.312;2024-02-04T11:02:43;21.70;52.20
33841;DHT22;20142;28.494;-16.312;2024-02-04T11:07:47;22.00;50.30
33841;DHT22;20142;28.494;-16.312;2024-02-04T11:12:50;22.40;49.90
33841;DHT22;20142;28.494;-16.312;2024-02-04T11:28:53;22.70;46.90
33841;DHT22;20142;28.494;-16.312;2024-02-04T11:33:55;22.70;46.10
33841;DHT22;20142;28.494;-16.312;2024-02-04T11:38:57;22.70;44.90
33841;DHT22;20142;28.494;-16.312;2024-02-04T11:43:59;22.80;43.80
33841;DHT22;20142;28.494;-16.312;2024-02-04T11:49:02;22.90;42.90
33841;DHT22;20142;28.494;-16.312;2024-02-04T11:54:05;22.90;42.90
33841;DHT22;20142;28.494;-16.312;2024-02-04T11:59:07;23.00;42.60
33841;DHT22;20142;28.494;-16.312;2024-02-04T12:04:18;23.00;42.00
33841;DHT22;20142;28.494;-16.312;2024-02-04T12:09:20;23.00;42.20
33841;DHT22;20142;28.494;-16.312;2024-02-04T12:14:27;23.00;41.70
33841;DHT22;20142;28.494;-16.312;2024-02-04T12:19:30;22.90;41.30
33841;DHT22;20142;28.494;-16.312;2024-02-04T12:24:32;22.90;40.70
33841;DHT22;20142;28.494;-16.312;2024-02-04T12:29:34;22.90;40.20
33841;DHT22;20142;28.494;-16.312;2024-02-04T12:34:36;22.90;40.00
33841;DHT22;20142;28.494;-16.312;2024-02-04T12:39:39;23.00;39.90
33841;DHT22;20142;28.494;-16.312;2024-02-04T12:44:41;23.00;39.50
33841;DHT22;20142;28.494;-16.312;2024-02-04T12:49:43;23.10;38.90
33841;DHT22;20142;28.494;-16.312;2024-02-04T12:54:45;23.10;38.80
33841;DHT22;20142;28.494;-16.312;2024-02-04T12:59:46;23.10;38.70
33841;DHT22;20142;28.494;-16.312;2024-02-04T13:04:48;23.10;38.20
33841;DHT22;20142;28.494;-16.312;2024-02-04T13:09:58;23.10;37.90
33841;DHT22;20142;28.494;-16.312;2024-02-04T13:15:03;23.10;37.70
33841;DHT22;20142;28.494;-16.312;2024-02-04T13:20:05;23.00;37.30
33841;DHT22;20142;28.494;-16.312;2024-02-04T13:25:07;23.00;37.20
33841;DHT22;20142;28.494;-16.312;2024-02-04T13:30:09;23.00;37.00
33841;DHT22;20142;28.494;-16.312;2024-02-04T13:35:13;23.10;36.40
33841;DHT22;20142;28.494;-16.312;2024-02-04T13:40:21;23.10;36.40
33841;DHT22;20142;28.494;-16.312;2024-02-04T13:45:23;23.10;36.20
33841;DHT22;20142;28.494;-16.312;2024-02-04T13:50:24;23.10;35.80
33841;DHT22;20142;28.494;-16.312;2024-02-04T13:55:26;23.10;36.10
33841;DHT22;20142;28.494;-16.312;2024-02-04T14:00:28;23.10;35.40
33841;DHT22;20142;28.494;-16.312;2024-02-04T14:05:29;23.00;35.60
33841;DHT22;20142;28.494;-16.312;2024-02-04T14:10:31;23.00;35.50
33841;DHT22;20142;28.494;-16.312;2024-02-04T14:15:33;23.00;35.00
33841;DHT22;20142;28.494;-16.312;2024-02-04T14:20:34;23.00;34.90
33841;DHT22;20142;28.494;-16.312;2024-02-04T14:25:36;22.90;34.70
33841;DHT22;20142;28.494;-16.312;2024-02-04T14:30:38;22.90;34.60
33841;DHT22;20142;28.494;-16.312;2024-02-04T14:35:40;22.90;34.10
33841;DHT22;20142;28.494;-16.312;2024-02-04T14:40:41;23.00;34.60
33841;DHT22;20142;28.494;-16.312;2024-02-04T14:45:44;23.00;34.00
33841;DHT22;20142;28.494;-16.312;2024-02-04T14:50:46;23.00;34.10
33841;DHT22;20142;28.494;-16.312;2024-02-04T14:55:49;22.90;34.10
33841;DHT22;20142;28.494;-16.312;2024-02-04T15:00:51;23.00;34.00
33841;DHT22;20142;28.494;-16.312;2024-02-04T15:05:52;23.10;34.30
33841;DHT22;20142;28.494;-16.312;2024-02-04T15:10:54;23.30;34.90
33841;DHT22;20142;28.494;-16.312;2024-02-04T15:15:56;24.30;36.20
33841;DHT22;20142;28.494;-16.312;2024-02-04T15:20:59;28.20;35.20
33841;DHT22;20142;28.494;-16.312;2024-02-04T15:26:02;33.10;32.10
33841;DHT22;20142;28.494;-16.312;2024-02-04T15:31:06;36.70;30.50
33841;DHT22;20142;28.494;-16.312;2024-02-04T15:36:08;39.60;29.70
33841;DHT22;20142;28.494;-16.312;2024-02-04T15:41:10;41.70;29.30
33841;DHT22;20142;28.494;-16.312;2024-02-04T15:46:14;42.20;28.60
33841;DHT22;20142;28.494;-16.312;2024-02-04T15:51:18;43.40;28.40
33841;DHT22;20142;28.494;-16.312;2024-02-04T15:56:24;44.50;28.10
33841;DHT22;20142;28.494;-16.312;2024-02-04T16:01:29;45.30;28.20
33841;DHT22;20142;28.494;-16.312;2024-02-04T16:06:32;45.80;27.90
33841;DHT22;20142;28.494;-16.312;2024-02-04T16:17:12;46.50;26.90
33841;DHT22;20142;28.494;-16.312;2024-02-04T16:22:19;46.80;26.60
33841;DHT22;20142;28.494;-16.312;2024-02-04T16:27:21;47.10;26.10
33841;DHT22;20142;28.494;-16.312;2024-02-04T16:32:22;47.50;26.00
33841;DHT22;20142;28.494;-16.312;2024-02-04T16:37:24;47.30;25.50
33841;DHT22;20142;28.494;-16.312;2024-02-04T16:42:26;47.20;25.10
33841;DHT22;20142;28.494;-16.312;2024-02-04T16:47:27;47.40;25.10
33841;DHT22;20142;28.494;-16.312;2024-02-04T16:52:29;47.90;24.60
33841;DHT22;20142;28.494;-16.312;2024-02-04T16:57:31;47.50;24.10
33841;DHT22;20142;28.494;-16.312;2024-02-04T17:02:33;47.90;23.70
33841;DHT22;20142;28.494;-16.312;2024-02-04T17:07:35;47.80;23.80
33841;DHT22;20142;28.494;-16.312;2024-02-04T17:12:37;44.80;23.70
33841;DHT22;20142;28.494;-16.312;2024-02-04T17:17:41;43.00;23.40
33841;DHT22;20142;28.494;-16.312;2024-02-04T17:22:47;38.70;24.00
33841;DHT22;20142;28.494;-16.312;2024-02-04T17:27:49;37.80;24.50
33841;DHT22;20142;28.494;-16.312;2024-02-04T17:32:53;35.60;24.90
33841;DHT22;20142;28.494;-16.312;2024-02-04T17:37:55;33.30;26.50
33841;DHT22;20142;28.494;-16.312;2024-02-04T17:42:59;33.60;27.10
33841;DHT22;20142;28.494;-16.312;2024-02-04T17:48:01;34.20;27.20
33841;DHT22;20142;28.494;-16.312;2024-02-04T17:53:04;32.20;27.90
33841;DHT22;20142;28.494;-16.312;2024-02-04T17:58:07;35.30;27.40
33841;DHT22;20142;28.494;-16.312;2024-02-04T18:03:09;34.90;27.50
33841;DHT22;20142;28.494;-16.312;2024-02-04T18:08:11;32.70;28.90
33841;DHT22;20142;28.494;-16.312;2024-02-04T18:13:12;30.30;30.30
33841;DHT22;20142;28.494;-16.312;2024-02-04T18:18:16;28.80;32.70
33841;DHT22;20142;28.494;-16.312;2024-02-04T18:23:18;27.60;34.40
33841;DHT22;20142;28.494;-16.312;2024-02-04T18:28:20;26.40;35.50
33841;DHT22;20142;28.494;-16.312;2024-02-04T18:33:21;25.60;37.40
33841;DHT22;20142;28.494;-16.312;2024-02-04T18:38:23;25.00;38.50
33841;DHT22;20142;28.494;-16.312;2024-02-04T18:43:25;24.60;39.90
33841;DHT22;20142;28.494;-16.312;2024-02-04T18:48:26;24.10;40.70
33841;DHT22;20142;28.494;-16.312;2024-02-04T18:53:28;23.50;42.80
33841;DHT22;20142;28.494;-16.312;2024-02-04T18:58:30;22.90;44.00
33841;DHT22;20142;28.494;-16.312;2024-02-04T19:03:34;22.50;45.10
33841;DHT22;20142;28.494;-16.312;2024-02-04T19:08:36;22.20;46.10
33841;DHT22;20142;28.494;-16.312;2024-02-04T19:13:37;22.00;46.50
33841;DHT22;20142;28.494;-16.312;2024-02-04T19:18:39;21.90;47.60
33841;DHT22;20142;28.494;-16.312;2024-02-04T19:23:41;21.30;48.10
33841;DHT22;20142;28.494;-16.312;2024-02-04T19:28:43;21.00;48.70
33841;DHT22;20142;28.494;-16.312;2024-02-04T19:33:44;20.80;50.00
33841;DHT22;20142;28.494;-16.312;2024-02-04T19:38:46;20.40;49.90
33841;DHT22;20142;28.494;-16.312;2024-02-04T19:43:49;20.20;50.80
33841;DHT22;20142;28.494;-16.312;2024-02-04T19:48:50;20.20;50.80
33841;DHT22;20142;28.494;-16.312;2024-02-04T19:53:53;20.10;50.40
33841;DHT22;20142;28.494;-16.312;2024-02-04T19:58:56;19.80;50.70
33841;DHT22;20142;28.494;-16.312;2024-02-04T20:04:04;19.60;50.90
33841;DHT22;20142;28.494;-16.312;2024-02-04T20:09:06;19.30;50.60
33841;DHT22;20142;28.494;-16.312;2024-02-04T20:14:08;19.20;50.50
33841;DHT22;20142;28.494;-16.312;2024-02-04T20:19:10;19.10;50.50
33841;DHT22;20142;28.494;-16.312;2024-02-04T20:24:12;18.80;50.70
33841;DHT22;20142;28.494;-16.312;2024-02-04T20:29:14;18.70;50.20
33841;DHT22;20142;28.494;-16.312;2024-02-04T20:34:17;18.60;50.10
33841;DHT22;20142;28.494;-16.312;2024-02-04T20:39:19;18.60;49.90
33841;DHT22;20142;28.494;-16.312;2024-02-04T20:44:21;18.40;49.80
33841;DHT22;20142;28.494;-16.312;2024-02-04T20:49:24;18.20;49.10
33841;DHT22;20142;28.494;-16.312;2024-02-04T20:54:26;18.00;49.40
33841;DHT22;20142;28.494;-16.312;2024-02-04T20:59:28;17.90;48.90
33841;DHT22;20142;28.494;-16.312;2024-02-04T21:04:30;17.80;48.30
33841;DHT22;20142;28.494;-16.312;2024-02-04T21:09:32;17.90;47.70
33841;DHT22;20142;28.494;-16.312;2024-02-04T21:14:37;17.90;47.50
33841;DHT22;20142;28.494;-16.312;2024-02-04T21:19:40;18.00;47.20
33841;DHT22;20142;28.494;-16.312;2024-02-04T21:24:43;18.00;46.60
33841;DHT22;20142;28.494;-16.312;2024-02-04T21:29:45;18.00;45.80
33841;DHT22;20142;28.494;-16.312;2024-02-04T21:34:48;18.20;44.30
33841;DHT22;20142;28.494;-16.312;2024-02-04T21:39:50;18.30;43.40
33841;DHT22;20142;28.494;-16.312;2024-02-04T21:44:52;18.30;43.00
33841;DHT22;20142;28.494;-16.312;2024-02-04T21:49:54;17.90;43.30
33841;DHT22;20142;28.494;-16.312;2024-02-04T21:54:57;17.80;44.10
33841;DHT22;20142;28.494;-16.312;2024-02-04T21:59:59;17.70;44.30
33841;DHT22;20142;28.494;-16.312;2024-02-04T22:05:01;17.60;44.10
33841;DHT22;20142;28.494;-16.312;2024-02-04T22:10:04;17.60;44.40
33841;DHT22;20142;28.494;-16.312;2024-02-04T22:15:09;17.50;44.40
33841;DHT22;20142;28.494;-16.312;2024-02-04T22:20:11;17.50;44.40
33841;DHT22;20142;28.494;-16.312;2024-02-04T22:25:14;17.40;44.40
33841;DHT22;20142;28.494;-16.312;2024-02-04T22:30:16;17.30;44.70
33841;DHT22;20142;28.494;-16.312;2024-02-04T22:35:18;17.30;44.30
33841;DHT22;20142;28.494;-16.312;2024-02-04T22:40:20;16.90;44.60
33841;DHT22;20142;28.494;-16.312;2024-02-04T22:45:21;16.90;44.70
33841;DHT22;20142;28.494;-16.312;2024-02-04T22:50:23;16.90;45.00
33841;DHT22;20142;28.494;-16.312;2024-02-04T22:55:25;17.00;44.90
33841;DHT22;20142;28.494;-16.312;2024-02-04T23:00:27;17.00;44.70
33841;DHT22;20142;28.494;-16.312;2024-02-04T23:05:29;16.90;44.70
33841;DHT22;20142;28.494;-16.312;2024-02-04T23:10:31;16.90;44.20
33841;DHT22;20142;28.494;-16.312;2024-02-04T23:15:32;16.90;43.80
33841;DHT22;20142;28.494;-16.312;2024-02-04T23:20:36;17.10;43.10
33841;DHT22;20142;28.494;-16.312;2024-02-04T23:25:38;17.30;42.30
33841;DHT22;20142;28.494;-16.312;2024-02-04T23:30:40;17.40;41.60
33841;DHT22;20142;28.494;-16.312;2024-02-04T23:35:42;17.40;41.00
33841;DHT22;20142;28.494;-16.312;2024-02-04T23:40:43;17.40;40.70
33841;DHT22;20142;28.494;-16.312;2024-02-04T23:45:45;17.30;40.60
33841;DHT22;20142;28.494;-16.312;2024-02-04T23:50:47;17.10;40.20
33841;DHT22;20142;28.494;-16.312;2024-02-04T23:55:49;16.80;40.50
